Time;durP1;ratioP1;P1;durP2;ratioP2;P2;SDS_P1;SDS_P2;PMS_P1;PMS_P2;Temp;Humidity;BMP_temperature;BMP_pressure;BME280_temperature;BME280_humidity;BME280_pressure;Samples;Min_cycle;Max_cycle;Signal;HPM_P1;HPM_P2
2022/05/13 00:00:02;;;;;;;14.98;2.90;;;;;;;11.32;83.79;101901.97;5070278;28;20032;-78
2022/05/13 00:02:27;;;;;;;25.02;3.95;;;;;;;11.32;84.42;101891.31;5070515;28;20093;-78
2022/05/13 00:04:53;;;;;;;24.63;4.03;;;;;;;11.35;85.12;101899.06;5070101;28;20036;-77
2022/05/13 00:07:19;;;;;;;22.83;3.65;;;;;;;11.32;85.76;101901.97;5070303;28;20492;-77
2022/05/13 00:10:05;;;;;;;19.83;5.85;;;;;;;11.33;86.37;101898.31;5070031;28;20034;-77
2022/05/13 00:12:38;;;;;;;23.80;4.82;;;;;;;11.34;86.94;101887.53;5070230;28;20044;-78
2022/05/13 00:15:06;;;;;;;25.50;4.68;;;;;;;11.35;87.13;101897.25;5070506;28;20060;-80
2022/05/13 00:17:31;;;;;;;27.23;4.68;;;;;;;11.37;87.39;101897.13;5070178;28;20044;-78
2022/05/13 00:19:57;;;;;;;36.10;6.40;;;;;;;11.36;87.62;101898.97;5069653;28;20052;-77
2022/05/13 00:22:23;;;;;;;35.28;8.93;;;;;;;11.35;87.85;101878.59;5069857;28;20052;-78
2022/05/13 00:24:48;;;;;;;37.05;8.77;;;;;;;11.37;88.08;101889.97;5069867;28;20116;-78
2022/05/13 00:27:14;;;;;;;41.65;10.98;;;;;;;11.39;88.37;101890.72;5070151;28;20025;-78
2022/05/13 00:29:39;;;;;;;27.88;7.72;;;;;;;11.42;88.48;101884.28;5069545;28;20111;-78
2022/05/13 00:32:05;;;;;;;25.73;6.07;;;;;;;11.44;87.98;101877.03;5069911;28;20098;-78
2022/05/13 00:34:32;;;;;;;21.23;4.55;;;;;;;11.49;88.06;101884.66;5051669;28;20412;-78
2022/05/13 00:36:58;;;;;;;27.35;5.15;;;;;;;11.49;87.78;101882.84;5069687;28;20036;-78
2022/05/13 00:39:23;;;;;;;19.48;4.20;;;;;;;11.51;87.70;101882.72;5051277;28;20039;-79
2022/05/13 00:41:48;;;;;;;28.05;4.28;;;;;;;11.51;87.43;101880.06;5069712;28;20505;-78
2022/05/13 00:44:14;;;;;;;20.00;4.00;;;;;;;11.52;87.64;101879.94;5051378;28;20055;-78
2022/05/13 00:46:42;;;;;;;21.05;4.13;;;;;;;11.54;87.57;101886.00;5069835;28;20033;-78
2022/05/13 00:49:13;;;;;;;30.35;4.22;;;;;;;11.54;87.26;101878.03;5069648;28;20032;-77
2022/05/13 00:51:43;;;;;;;24.92;3.97;;;;;;;11.54;86.73;101870.03;5069746;28;20091;-78
2022/05/13 00:54:11;;;;;;;18.83;3.22;;;;;;;11.56;86.65;101872.56;5069298;28;20115;-78
2022/05/13 00:56:37;;;;;;;26.88;3.95;;;;;;;11.56;86.18;101868.06;5069882;28;20194;-77
2022/05/13 00:59:06;;;;;;;20.02;2.80;;;;;;;11.56;85.89;101872.56;5070030;28;20036;-77
2022/05/13 01:01:33;;;;;;;25.45;3.70;;;;;;;11.57;85.01;101864.44;5069686;28;20082;-77
2022/05/13 01:04:03;;;;;;;17.77;3.85;;;;;;;11.59;84.75;101872.31;5051967;28;20024;-78
2022/05/13 01:06:29;;;;;;;23.67;3.83;;;;;;;11.59;84.29;101862.50;5069338;28;20036;-78
2022/05/13 01:08:56;;;;;;;23.85;4.78;;;;;;;11.60;84.00;101861.53;5069255;28;20032;-78
2022/05/13 01:11:26;;;;;;;20.58;3.25;;;;;;;11.60;82.55;101866.03;5069397;28;20388;-77
2022/05/13 01:14:02;;;;;;;17.15;3.67;;;;;;;11.63;81.76;101858.63;5069422;28;20496;-78
2022/05/13 01:16:28;;;;;;;16.40;3.28;;;;;;;11.67;79.51;101863.72;5069176;28;20089;-77
2022/05/13 01:18:53;;;;;;;18.75;3.47;;;;;;;11.71;79.38;101867.84;5069959;28;20040;-77
2022/05/13 01:21:25;;;;;;;9.48;2.60;;;;;;;11.71;78.34;101865.19;5069044;28;20090;-77
2022/05/13 01:23:52;;;;;;;16.50;3.20;;;;;;;11.74;77.28;101860.44;5069518;28;20119;-79
2022/05/13 01:26:25;;;;;;;18.67;3.33;;;;;;;11.75;78.09;101850.66;5069164;28;20040;-76
2022/05/13 01:28:53;;;;;;;20.73;2.92;;;;;;;11.76;78.29;101861.19;5069420;28;20111;-77
2022/05/13 01:31:31;;;;;;;15.38;3.20;;;;;;;11.76;78.09;101862.97;5050919;28;20227;-77
2022/05/13 01:33:58;;;;;;;20.00;3.50;;;;;;;11.75;78.97;101858.66;5069423;28;20157;-78
2022/05/13 01:36:24;;;;;;;12.40;3.03;;;;;;;11.72;79.89;101862.41;5069390;28;20037;-78
2022/05/13 01:38:50;;;;;;;18.88;3.08;;;;;;;11.69;80.08;101862.63;5069351;28;20107;-78
2022/05/13 01:41:16;;;;;;;14.95;2.65;;;;;;;11.65;80.60;101855.84;5071002;28;20185;-78
2022/05/13 01:43:44;;;;;;;21.55;3.38;;;;;;;11.61;81.04;101863.25;5072686;28;20337;-78
2022/05/13 01:46:10;;;;;;;15.38;2.85;;;;;;;11.57;81.25;101861.78;5072396;28;20025;-76
2022/05/13 01:48:36;;;;;;;20.58;3.55;;;;;;;11.54;80.96;101864.69;5072792;28;20033;-77
2022/05/13 01:51:02;;;;;;;15.50;3.35;;;;;;;11.51;81.12;101862.28;5072391;28;20452;-78
2022/05/13 01:53:28;;;;;;;12.65;3.33;;;;;;;11.48;81.17;101870.50;5054515;28;20345;-78
2022/05/13 01:55:54;;;;;;;19.02;3.88;;;;;;;11.47;81.16;101866.97;5072722;28;20108;-78
2022/05/13 01:58:22;;;;;;;17.10;3.53;;;;;;;11.43;81.16;101864.66;5072706;28;20041;-79
2022/05/13 02:00:50;;;;;;;12.50;3.15;;;;;;;11.42;81.16;101849.63;5072835;28;20409;-78
2022/05/13 02:06:00;;;;;;;10.88;3.15;;;;;;;11.37;80.74;101852.66;5072619;28;20056;-78
2022/05/13 02:08:26;;;;;;;16.83;3.15;;;;;;;11.36;81.40;101847.47;5072739;28;20159;-78
2022/05/13 02:10:51;;;;;;;13.02;2.97;;;;;;;11.32;81.07;101851.34;5072497;28;20138;-77
2022/05/13 02:13:17;;;;;;;14.52;3.30;;;;;;;11.28;81.72;101843.56;5072252;28;20038;-78
2022/05/13 02:15:43;;;;;;;13.32;3.88;;;;;;;11.25;81.99;101849.13;5072383;28;20191;-78
2022/05/13 02:18:09;;;;;;;16.23;3.70;;;;;;;11.20;82.71;101854.00;5072289;28;20562;-77
2022/05/13 02:20:36;;;;;;;15.25;3.40;;;;;;;11.20;82.23;101848.66;5072324;28;20387;-77
2022/05/13 02:23:02;;;;;;;15.20;3.42;;;;;;;11.20;82.07;101850.50;5071976;28;20089;-77
2022/05/13 02:25:29;;;;;;;15.95;3.45;;;;;;;11.18;81.85;101855.06;5054230;28;20110;-77
2022/05/13 02:27:59;;;;;;;13.32;3.25;;;;;;;11.21;81.51;101842.38;5071636;28;20036;-79
2022/05/13 02:30:26;;;;;;;13.23;3.00;;;;;;;11.20;81.20;101839.84;5071549;28;20048;-78
2022/05/13 02:32:51;;;;;;;17.90;3.20;;;;;;;11.18;80.95;101839.94;5071380;28;20087;-78
2022/05/13 02:35:17;;;;;;;14.68;3.00;;;;;;;11.16;80.58;101828.53;5053579;28;20433;-79
2022/05/13 02:37:42;;;;;;;17.13;4.20;;;;;;;11.14;80.04;101824.28;5053765;28;20032;-78
2022/05/13 02:40:08;;;;;;;14.07;3.50;;;;;;;11.11;80.35;101830.72;5071518;28;20436;-78
2022/05/13 02:42:33;;;;;;;15.93;3.53;;;;;;;11.10;80.22;101837.00;5037334;28;20033;-79
2022/05/13 02:45:00;;;;;;;12.32;3.33;;;;;;;11.07;80.09;101831.94;5071526;28;20031;-79
2022/05/13 02:47:25;;;;;;;16.73;3.60;;;;;;;11.06;79.86;101830.22;5071416;28;20082;-78
2022/05/13 02:50:17;;;;;;;14.95;2.88;;;;;;;11.04;79.87;101835.66;5053522;28;20119;-78
2022/05/13 02:52:36;;;;;;;21.10;3.28;;;;;;;11.01;80.18;101827.91;5071320;28;20471;-78
2022/05/13 02:55:02;;;;;;;17.13;3.15;;;;;;;11.00;79.82;101838.69;5071389;28;20074;-78
2022/05/13 02:57:27;;;;;;;15.45;3.75;;;;;;;10.97;80.06;101831.78;5053422;28;20043;-78
2022/05/13 02:59:52;;;;;;;11.45;2.50;;;;;;;10.96;80.38;101838.09;5071274;28;20060;-78
2022/05/13 03:02:18;;;;;;;18.05;3.13;;;;;;;10.98;80.72;101838.81;5071233;28;20098;-78
2022/05/13 03:04:43;;;;;;;21.77;2.95;;;;;;;10.97;80.73;101833.59;5071365;28;20320;-78
2022/05/13 03:07:09;;;;;;;8.43;2.65;;;;;;;10.94;81.07;101840.88;5070948;28;20025;-78
2022/05/13 03:09:34;;;;;;;18.83;3.20;;;;;;;10.93;81.03;101835.66;5071221;28;20156;-79
2022/05/13 03:12:00;;;;;;;13.93;2.90;;;;;;;10.92;81.26;101833.94;5052959;28;20036;-79
2022/05/13 03:14:25;;;;;;;13.05;2.65;;;;;;;10.90;81.41;101833.22;5070900;28;20032;-78
2022/05/13 03:16:51;;;;;;;15.55;3.05;;;;;;;10.90;81.81;101836.72;5071133;28;20411;-78
2022/05/13 03:19:16;;;;;;;7.13;2.22;;;;;;;10.90;82.01;101839.41;5071058;28;20058;-78
2022/05/13 03:21:41;;;;;;;12.07;2.78;;;;;;;10.90;82.33;101835.91;5070443;28;20554;-78
2022/05/13 03:24:08;;;;;;;15.15;2.80;;;;;;;10.89;82.66;101840.34;5070829;28;20044;-78
2022/05/13 03:26:33;;;;;;;18.50;2.97;;;;;;;10.87;82.92;101844.94;5070929;28;20052;-78
2022/05/13 03:28:59;;;;;;;14.70;3.05;;;;;;;10.86;83.48;101847.72;5070947;28;20036;-77
2022/05/13 03:31:24;;;;;;;12.13;3.00;;;;;;;10.86;83.85;101853.91;5070794;28;20032;-78
2022/05/13 03:33:50;;;;;;;13.48;2.65;;;;;;;10.87;84.11;101850.28;5070795;28;20064;-78
2022/05/13 03:36:15;;;;;;;14.35;2.78;;;;;;;10.87;84.85;101844.94;5070667;28;20041;-79
2022/05/13 03:38:41;;;;;;;12.57;2.90;;;;;;;10.90;84.55;101852.72;5070726;28;20028;-78
2022/05/13 03:41:07;;;;;;;16.42;2.72;;;;;;;10.88;84.77;101859.97;5070953;28;20182;-78
2022/05/13 03:43:32;;;;;;;14.60;3.20;;;;;;;10.89;85.28;101853.66;5070750;28;20028;-77
2022/05/13 03:45:57;;;;;;;14.32;2.95;;;;;;;10.85;85.40;101844.22;5070923;28;20436;-78
2022/05/13 03:48:23;;;;;;;14.77;2.88;;;;;;;10.87;85.74;101858.25;5052037;28;20032;-79
2022/05/13 03:50:48;;;;;;;14.18;3.03;;;;;;;10.85;85.57;101852.22;5070312;28;20041;-78
2022/05/13 03:53:14;;;;;;;16.38;3.10;;;;;;;10.88;85.50;101851.97;5070401;28;20127;-79
2022/05/13 03:55:39;;;;;;;13.27;3.45;;;;;;;10.91;85.39;101854.41;5070302;28;20156;-77
2022/05/13 03:58:05;;;;;;;13.68;2.80;;;;;;;10.89;85.35;101850.16;5052122;28;20127;-78
2022/05/13 04:00:31;;;;;;;16.85;2.97;;;;;;;10.89;85.28;101847.50;5069960;28;20064;-79
2022/05/13 04:02:58;;;;;;;14.63;2.58;;;;;;;10.92;84.68;101857.91;5069763;28;20032;-78
2022/05/13 04:10:52;;;;;;;14.48;2.78;;;;;;;10.87;83.73;101857.44;5070074;28;20085;-78
2022/05/13 04:16:06;;;;;;;13.95;3.20;;;;;;;10.84;83.88;101868.28;5070316;28;20109;-78
2022/05/13 04:18:40;;;;;;;10.75;2.63;;;;;;;10.85;83.93;101867.31;5070607;28;20029;-77
2022/05/13 04:21:12;;;;;;;13.93;2.63;;;;;;;10.86;83.93;101859.22;5070864;28;20109;-77
2022/05/13 04:23:40;;;;;;;8.43;2.00;;;;;;;10.90;83.77;101855.38;5071085;28;20060;-77
2022/05/13 04:26:05;;;;;;;7.68;2.10;;;;;;;10.94;83.82;101859.50;5070391;28;20041;-77
2022/05/13 04:28:31;;;;;;;10.82;2.05;;;;;;;11.00;83.02;101857.31;5070086;28;20457;-77
2022/05/13 04:30:58;;;;;;;16.88;2.60;;;;;;;11.05;82.93;101864.00;5069783;28;20044;-77
2022/05/13 04:33:24;;;;;;;16.38;2.20;;;;;;;11.11;82.53;101862.69;5051477;28;20123;-78
2022/05/13 04:35:50;;;;;;;12.93;2.60;;;;;;;11.22;81.95;101878.69;5069952;28;20037;-77
2022/05/13 04:38:15;;;;;;;8.50;2.20;;;;;;;11.28;81.45;101870.22;5069895;28;20395;-76
2022/05/13 04:40:40;;;;;;;10.10;2.38;;;;;;;11.37;80.95;101873.16;5069381;28;20040;-76
2022/05/13 04:43:06;;;;;;;11.82;2.72;;;;;;;11.42;80.49;101874.50;5051698;28;20028;-78
2022/05/13 04:45:32;;;;;;;15.52;2.75;;;;;;;11.48;79.46;101878.50;5069288;28;20036;-76
2022/05/13 04:48:16;;;;;;;9.20;2.40;;;;;;;11.54;79.22;101879.81;5069821;28;20070;-78
2022/05/13 04:50:58;;;;;;;11.50;2.35;;;;;;;11.60;78.62;101890.88;5051791;28;20366;-77
2022/05/13 04:53:27;;;;;;;12.93;2.42;;;;;;;11.63;78.94;101892.44;5069779;28;20116;-77
2022/05/13 04:55:54;;;;;;;12.68;2.47;;;;;;;11.63;78.37;101905.78;5069451;28;20440;-78
2022/05/13 04:58:20;;;;;;;9.63;1.95;;;;;;;11.68;77.15;101897.41;5069736;28;20028;-77
2022/05/13 05:00:47;;;;;;;8.77;2.30;;;;;;;11.69;77.29;101899.09;5069850;28;20059;-76
2022/05/13 05:03:13;;;;;;;11.38;2.40;;;;;;;11.71;77.00;101900.69;5069947;28;20048;-77
2022/05/13 05:05:38;;;;;;;11.32;2.65;;;;;;;11.74;76.97;101903.09;5069319;28;20033;-77
2022/05/13 05:08:04;;;;;;;12.45;2.05;;;;;;;11.77;76.84;101910.84;5069638;28;20093;-78
2022/05/13 05:10:30;;;;;;;11.68;2.53;;;;;;;11.81;76.85;101908.81;5068984;28;20103;-78
2022/05/13 05:12:56;;;;;;;14.15;2.33;;;;;;;11.81;77.36;101912.31;5069390;28;20048;-77
2022/05/13 05:15:22;;;;;;;9.93;2.25;;;;;;;11.84;77.66;101916.56;5070561;28;20042;-77
2022/05/13 05:17:48;;;;;;;13.68;3.08;;;;;;;11.84;78.05;101927.25;5072783;28;20028;-77
2022/05/13 05:20:15;;;;;;;13.10;2.58;;;;;;;11.86;78.71;101935.94;5072824;28;20066;-79
2022/05/13 05:22:41;;;;;;;18.70;2.55;;;;;;;11.90;79.04;101931.25;5072846;28;20066;-76
2022/05/13 05:25:07;;;;;;;17.38;2.70;;;;;;;11.92;79.15;101932.78;5073041;28;20081;-77
2022/05/13 05:27:35;;;;;;;11.10;2.25;;;;;;;11.99;78.78;101927.88;5073037;28;20024;-77
2022/05/13 05:30:03;;;;;;;21.35;3.00;;;;;;;12.03;78.91;101931.13;5072677;28;20399;-77
2022/05/13 05:32:28;;;;;;;13.95;2.85;;;;;;;12.10;79.09;101927.84;5073066;28;20093;-76
2022/05/13 05:34:54;;;;;;;17.17;2.33;;;;;;;12.19;79.22;101931.59;5072347;28;20343;-76
2022/05/13 05:37:19;;;;;;;16.90;2.70;;;;;;;12.28;78.99;101946.88;5072530;28;20029;-77
2022/05/13 05:39:44;;;;;;;13.30;2.67;;;;;;;12.39;78.26;101938.03;5072259;28;20108;-78
2022/05/13 05:42:10;;;;;;;11.23;2.40;;;;;;;12.43;78.34;101930.59;5072172;28;20112;-77
2022/05/13 05:44:35;;;;;;;16.80;2.95;;;;;;;12.52;78.32;101933.38;5072424;28;20127;-77
2022/05/13 05:47:01;;;;;;;14.60;2.90;;;;;;;12.57;77.69;101941.00;5054472;28;20063;-77
2022/05/13 05:49:26;;;;;;;15.57;2.50;;;;;;;12.61;77.90;101947.78;5072299;28;20380;-77
2022/05/13 05:51:52;;;;;;;12.75;2.20;;;;;;;12.64;76.78;101952.88;5072237;28;20105;-77
2022/05/13 05:57:13;;;;;;;14.20;3.50;;;;;;;12.69;76.35;101958.69;5072457;28;20443;-77
2022/05/13 05:59:39;;;;;;;12.18;2.30;;;;;;;12.73;75.57;101955.75;5056039;28;20090;-77
2022/05/13 06:02:04;;;;;;;19.58;3.95;;;;;;;12.79;75.96;101955.25;5072346;28;20029;-76
2022/05/13 06:04:29;;;;;;;14.30;2.60;;;;;;;12.78;75.97;101964.22;5071915;28;20062;-77
2022/05/13 06:06:55;;;;;;;11.82;2.20;;;;;;;12.81;75.33;101969.34;5053855;28;20024;-77
2022/05/13 06:09:21;;;;;;;9.00;2.38;;;;;;;12.82;74.12;101979.03;5071919;28;20377;-75
2022/05/13 06:11:46;;;;;;;9.50;2.33;;;;;;;12.81;73.91;101977.38;5072134;28;20040;-75
2022/05/13 06:14:11;;;;;;;10.75;2.28;;;;;;;12.69;73.68;101973.88;5072046;28;20036;-76
2022/05/13 06:16:37;;;;;;;11.80;2.38;;;;;;;12.66;73.87;101972.28;5071736;28;20551;-78
2022/05/13 06:19:03;;;;;;;14.50;2.60;;;;;;;12.74;74.28;101973.50;5071782;28;20048;-76
2022/05/13 06:21:33;;;;;;;14.30;2.03;;;;;;;12.72;73.96;101968.28;5071922;28;20070;-77
2022/05/13 06:23:59;;;;;;;10.20;2.38;;;;;;;12.65;74.03;101973.25;5071412;28;20044;-77
2022/05/13 06:26:25;;;;;;;12.70;2.58;;;;;;;12.60;73.72;101975.47;5071254;28;20444;-77
2022/05/13 06:28:51;;;;;;;16.65;2.13;;;;;;;12.61;73.47;101977.16;5071979;28;20418;-77
2022/05/13 06:31:18;;;;;;;7.55;1.90;;;;;;;12.70;73.59;101978.22;5071781;28;20047;-78
2022/05/13 06:33:44;;;;;;;10.57;2.00;;;;;;;12.84;72.73;101979.78;5072008;28;20190;-79
2022/05/13 06:36:10;;;;;;;8.88;2.05;;;;;;;13.04;71.38;101975.44;5071810;28;20060;-78
2022/05/13 06:38:36;;;;;;;7.90;1.92;;;;;;;13.16;68.99;101976.25;5053087;28;20111;-78
2022/05/13 06:41:02;;;;;;;16.45;2.80;;;;;;;13.34;69.73;101971.22;5071848;28;20163;-77
2022/05/13 06:43:27;;;;;;;11.93;1.92;;;;;;;13.54;67.77;101980.19;5071756;28;20385;-77
2022/05/13 06:45:53;;;;;;;9.55;1.65;;;;;;;13.69;67.37;101988.75;5071585;28;20173;-77
2022/05/13 06:48:18;;;;;;;12.98;1.90;;;;;;;13.71;66.44;101995.66;5053540;28;20116;-78
2022/05/13 06:50:46;;;;;;;12.93;2.28;;;;;;;13.86;66.39;102001.53;5071391;28;20440;-78
2022/05/13 06:53:12;;;;;;;7.28;1.65;;;;;;;14.00;65.57;102004.84;5071619;28;20400;-77
2022/05/13 06:55:39;;;;;;;17.35;1.75;;;;;;;14.01;65.84;102002.03;5071500;28;20064;-76
2022/05/13 06:58:04;;;;;;;8.82;1.95;;;;;;;14.03;65.05;102005.44;5053441;28;20099;-77
2022/05/13 07:00:30;;;;;;;9.95;1.75;;;;;;;14.13;64.51;102007.31;5071638;28;20111;-76
2022/05/13 07:02:55;;;;;;;9.65;1.88;;;;;;;14.20;63.26;101998.59;5071380;28;20402;-75
2022/05/13 07:05:21;;;;;;;7.43;2.03;;;;;;;14.36;63.64;102007.94;5072135;28;20480;-75
2022/05/13 07:07:47;;;;;;;6.95;1.92;;;;;;;14.37;62.46;102007.81;5070969;28;20040;-77
2022/05/13 07:10:13;;;;;;;8.43;2.28;;;;;;;14.61;61.98;102023.59;5053493;28;20442;-75
2022/05/13 07:12:39;;;;;;;10.75;1.75;;;;;;;14.58;61.15;102013.06;5071520;28;20040;-76
2022/05/13 07:15:10;;;;;;;8.25;1.90;;;;;;;14.62;62.24;102019.91;5071008;28;20028;-76
2022/05/13 07:17:36;;;;;;;;;;;;;;;14.60;61.74;102024.53;5071961;28;20035;-76
2022/05/13 07:20:01;;;;;;;5.90;1.58;;;;;;;14.37;62.62;102020.34;5071219;28;19912;-75
2022/05/13 07:22:26;;;;;;;6.53;1.65;;;;;;;14.35;62.20;102025.84;5070840;28;20431;-76
2022/05/13 07:24:52;;;;;;;8.43;1.73;;;;;;;14.26;61.82;102027.50;5053386;28;20039;-77
2022/05/13 07:27:17;;;;;;;10.38;1.65;;;;;;;14.31;63.19;102029.75;5071035;28;20040;-77
2022/05/13 07:29:43;;;;;;;12.02;2.20;;;;;;;14.34;62.51;102037.53;5052828;28;20067;-77
2022/05/13 07:32:08;;;;;;;8.18;1.70;;;;;;;14.19;64.14;102030.84;5071099;28;20036;-77
2022/05/13 07:34:34;;;;;;;6.15;1.83;;;;;;;14.32;63.96;102038.66;5071159;28;20180;-78
2022/05/13 07:37:00;;;;;;;11.00;1.77;;;;;;;14.42;63.29;102042.19;5052876;28;20075;-77
2022/05/13 07:42:10;;;;;;;8.85;2.00;;;;;;;14.46;63.87;102041.81;5070733;28;20048;-77
2022/05/13 07:44:37;;;;;;;12.85;1.80;;;;;;;14.72;63.26;102049.41;5070730;28;20157;-78
2022/05/13 07:47:05;;;;;;;11.68;2.28;;;;;;;14.92;62.28;102044.09;5052917;28;20028;-77
2022/05/13 07:49:30;;;;;;;9.60;1.98;;;;;;;14.96;61.37;102048.19;5070613;28;20028;-78
2022/05/13 07:51:56;;;;;;;8.30;2.20;;;;;;;15.15;61.55;102036.63;5070749;28;20409;-76
2022/05/13 07:54:22;;;;;;;10.10;2.30;;;;;;;15.21;60.43;102049.50;5070756;28;20032;-78
2022/05/13 07:56:47;;;;;;;14.48;2.05;;;;;;;15.03;60.48;102051.97;5070438;28;20079;-77
2022/05/13 07:59:13;;;;;;;10.88;2.13;;;;;;;15.05;60.52;102050.03;5070517;28;20032;-76
2022/05/13 08:01:38;;;;;;;11.95;2.35;;;;;;;15.13;59.01;102058.22;5070583;28;20036;-78
2022/05/13 08:04:04;;;;;;;8.45;1.80;;;;;;;15.08;58.71;102062.31;5070006;28;20369;-77
2022/05/13 08:06:29;;;;;;;7.05;2.10;;;;;;;15.07;59.55;102044.53;5052729;28;20290;-75
2022/05/13 08:08:58;;;;;;;8.57;1.70;;;;;;;15.02;59.44;102061.03;5070502;28;20047;-75
2022/05/13 08:11:26;;;;;;;7.15;1.35;;;;;;;15.24;58.57;102053.69;5070765;28;20436;-76
2022/05/13 08:13:52;;;;;;;7.45;2.33;;;;;;;15.34;57.82;102054.56;5070903;28;20052;-75
2022/05/13 08:16:20;;;;;;;8.77;1.80;;;;;;;15.39;57.41;102057.69;5070098;28;20036;-76
2022/05/13 08:18:46;;;;;;;13.73;2.28;;;;;;;15.41;57.71;102060.22;5070591;28;20330;-76
2022/05/13 08:21:12;;;;;;;12.82;2.03;;;;;;;15.63;56.47;102067.97;5052561;28;20094;-75
2022/05/13 08:23:38;;;;;;;10.50;1.60;;;;;;;15.72;56.60;102062.72;5070564;28;20499;-75
2022/05/13 08:26:05;;;;;;;9.25;2.35;;;;;;;15.87;56.41;102072.06;5070618;28;20040;-76
2022/05/13 08:28:30;;;;;;;9.20;1.90;;;;;;;16.10;57.25;102063.69;5070264;28;20485;-75
2022/05/13 08:30:57;;;;;;;11.27;1.95;;;;;;;16.10;55.85;102067.19;5069795;28;20119;-77
2022/05/13 08:33:22;;;;;;;9.00;1.80;;;;;;;16.50;56.50;102062.56;5069929;28;20349;-74
2022/05/13 08:35:51;;;;;;;7.15;1.50;;;;;;;16.90;53.76;102069.44;5070275;28;20043;-76
2022/05/13 08:38:21;;;;;;;9.13;1.98;;;;;;;17.39;53.28;102061.00;5070036;28;20024;-75
2022/05/13 08:40:50;;;;;;;11.47;1.83;;;;;;;17.86;50.54;102076.03;5069905;28;20095;-74
2022/05/13 08:43:19;;;;;;;11.13;2.17;;;;;;;17.69;50.55;102083.97;5069893;28;20039;-77
2022/05/13 08:45:54;;;;;;;8.23;1.90;;;;;;;17.76;50.84;102079.66;5069983;28;20448;-68
2022/05/13 08:48:30;;;;;;;12.52;2.17;;;;;;;17.97;49.93;102084.72;5070668;28;20122;-72
2022/05/13 08:51:10;;;;;;;9.40;1.80;;;;;;;17.90;48.89;102089.06;5073946;28;20409;-74
2022/05/13 08:54:00;;;;;;;8.98;1.88;;;;;;;17.94;49.59;102092.25;5074332;28;20039;-73
2022/05/13 08:56:28;;;;;;;9.77;2.17;;;;;;;17.98;49.38;102099.88;5055538;28;20135;-73
2022/05/13 08:59:17;;;;;;;11.20;2.22;;;;;;;17.96;49.95;102101.88;5055725;28;20360;-85
2022/05/13 09:01:47;;;;;;;10.57;1.85;;;;;;;18.12;49.38;102098.47;5062950;28;20492;-77
2022/05/13 09:04:26;;;;;;;9.38;1.90;;;;;;;19.16;47.42;102101.97;5073667;28;20028;-72
2022/05/13 09:06:56;;;;;;;11.90;2.72;;;;;;;19.94;44.89;102104.41;5073685;28;20095;-74
2022/05/13 09:09:22;;;;;;;9.98;2.00;;;;;;;19.60;44.25;102102.69;5073621;28;20171;-76
2022/05/13 09:12:00;;;;;;;7.72;2.10;;;;;;;20.01;44.51;102108.13;5073323;28;20037;-76
2022/05/13 09:14:37;;;;;;;8.38;1.98;;;;;;;20.61;43.00;102112.19;5073845;28;20034;-75
2022/05/13 09:17:30;;;;;;;13.38;2.75;;;;;;;20.55;42.47;102115.59;5055391;28;20170;-80
2022/05/13 09:20:10;;;;;;;8.23;1.90;;;;;;;21.37;40.77;102120.59;5056018;28;20119;-74
2022/05/13 09:22:43;;;;;;;10.50;1.98;;;;;;;21.13;41.17;102122.44;5073330;28;20136;-79
2022/05/13 09:25:36;;;;;;;8.32;2.05;;;;;;;20.53;41.42;102110.34;5073827;28;20360;-79
2022/05/13 09:28:29;;;;;;;11.30;1.98;;;;;;;20.23;42.61;102111.97;5073562;28;20037;-78
2022/05/13 09:31:04;;;;;;;10.70;1.90;;;;;;;20.15;42.56;102112.81;5070014;28;20040;-81
2022/05/13 09:33:36;;;;;;;8.05;1.83;;;;;;;20.20;42.58;102132.06;5073341;28;20112;-72
2022/05/13 09:36:28;;;;;;;5.22;1.73;;;;;;;19.94;44.67;102132.25;5073258;28;20078;-76
2022/05/13 09:38:56;;;;;;;10.82;2.05;;;;;;;20.17;43.43;102118.03;5055275;28;20028;-82
2022/05/13 09:41:35;;;;;;;6.18;1.83;;;;;;;20.85;41.77;102121.25;5073303;28;20082;-77
2022/05/13 09:44:08;;;;;;;7.32;1.77;;;;;;;20.88;41.58;102119.03;5073584;28;20029;-76
2022/05/13 09:46:37;;;;;;;10.50;2.08;;;;;;;21.13;41.62;102113.50;5073437;28;20028;-77
2022/05/13 09:49:04;;;;;;;7.63;1.90;;;;;;;22.40;38.86;102123.81;5073358;28;20025;-76
2022/05/13 09:51:36;;;;;;;9.43;2.10;;;;;;;23.20;37.54;102129.44;5073444;28;20036;-78
2022/05/13 09:54:15;;;;;;;11.60;2.40;;;;;;;22.99;36.46;102131.06;5073513;28;20449;-77
2022/05/13 09:56:46;;;;;;;10.35;2.17;;;;;;;22.46;36.89;102127.66;5073568;28;20470;-77
2022/05/13 09:59:25;;;;;;;12.73;2.25;;;;;;;22.79;37.59;102127.25;5073085;28;20111;-79
2022/05/13 10:01:52;;;;;;;9.20;1.90;;;;;;;22.20;37.65;102123.50;5072489;28;20029;-78
2022/05/13 10:04:22;;;;;;;9.70;1.95;;;;;;;22.21;37.97;102127.03;5073113;28;20482;-78
2022/05/13 10:06:48;;;;;;;14.27;2.42;;;;;;;22.25;38.16;102129.19;5073232;28;20432;-80
2022/05/13 10:15:17;;;;;;;7.05;2.45;;;;;;;23.19;35.72;102125.88;5073152;28;20093;-77
2022/05/13 10:17:51;;;;;;;11.07;2.03;;;;;;;23.20;36.44;102116.72;5072603;28;20049;-76
2022/05/13 10:20:31;;;;;;;8.57;1.70;;;;;;;23.30;35.58;102123.69;5072868;28;20064;-79
2022/05/13 10:23:05;;;;;;;5.85;1.30;;;;;;;23.14;35.02;102125.63;5073267;28;20045;-85
2022/05/13 10:25:39;;;;;;;8.85;1.70;;;;;;;23.02;34.17;102127.09;5072128;28;20025;-79
2022/05/13 10:28:11;;;;;;;9.65;2.30;;;;;;;23.17;35.67;102117.09;5072786;28;20082;-76
2022/05/13 10:30:50;;;;;;;6.47;1.55;;;;;;;23.41;35.46;102124.03;5072313;28;20029;-77
2022/05/13 10:33:38;;;;;;;8.23;2.00;;;;;;;22.57;35.88;102127.16;5072543;28;20440;-78
2022/05/13 10:36:25;;;;;;;8.35;1.73;;;;;;;22.50;37.43;102128.97;5072692;28;20035;-76
2022/05/13 10:38:54;;;;;;;8.82;1.90;;;;;;;23.23;35.73;102127.19;5072282;28;20120;-78
2022/05/13 10:41:32;;;;;;;8.38;2.28;;;;;;;23.12;35.78;102124.13;5072361;28;20161;-77
2022/05/13 10:44:08;;;;;;;9.60;2.28;;;;;;;23.28;35.04;102123.88;5072023;28;20032;-77
2022/05/13 10:46:54;;;;;;;10.48;2.30;;;;;;;23.50;35.44;102132.88;5072241;28;20020;-77
2022/05/13 10:49:20;;;;;;;16.17;2.30;;;;;;;23.44;34.40;102146.38;5072028;28;20445;-78
2022/05/13 10:52:04;;;;;;;10.70;2.10;;;;;;;23.20;36.56;102124.84;5071875;28;20115;-77
2022/05/13 10:54:54;;;;;;;8.15;2.00;;;;;;;23.14;35.56;102122.91;5071988;28;20036;-77
2022/05/13 10:57:33;;;;;;;9.63;2.67;;;;;;;22.87;36.30;102119.00;5053659;28;20084;-77
2022/05/13 11:00:19;;;;;;;8.18;1.95;;;;;;;23.00;36.12;102118.31;5071922;28;20468;-77
2022/05/13 11:03:14;;;;;;;11.40;2.28;;;;;;;22.76;36.05;102120.31;5072173;28;20129;-77
2022/05/13 11:06:01;;;;;;;9.52;2.28;;;;;;;21.64;38.56;102121.94;5072974;28;20380;-77
2022/05/13 11:08:56;;;;;;;11.63;2.30;;;;;;;21.57;39.11;102115.59;5053426;28;20112;-79
2022/05/13 11:11:42;;;;;;;13.10;2.40;;;;;;;20.42;41.03;102129.63;5060217;28;20040;-78
2022/05/13 11:14:35;;;;;;;15.52;2.75;;;;;;;20.30;42.11;102126.44;5070382;28;20029;-78
2022/05/13 11:17:10;;;;;;;7.68;1.60;;;;;;;20.09;42.60;102121.59;5071269;28;20035;-77
2022/05/13 11:20:20;;;;;;;9.68;1.95;;;;;;;19.94;43.05;102116.03;5071411;28;20039;-78
2022/05/13 11:23:14;;;;;;;7.87;2.00;;;;;;;19.31;45.49;102133.69;5045318;28;20048;-80
2022/05/13 11:25:57;;;;;;;8.95;2.20;;;;;;;18.98;45.44;102139.84;5071319;28;20036;-77
2022/05/13 11:28:32;;;;;;;9.20;2.00;;;;;;;18.58;46.66;102124.31;5070999;28;20127;-79
2022/05/13 11:31:20;;;;;;;9.70;2.25;;;;;;;19.03;46.84;102136.66;5071119;28;20075;-81
2022/05/13 11:34:02;;;;;;;12.38;2.33;;;;;;;20.11;43.53;102127.69;5069963;28;20024;-77
2022/05/13 11:36:45;;;;;;;9.93;2.00;;;;;;;20.41;42.53;102134.22;5070658;28;20139;-75
2022/05/13 11:39:26;;;;;;;9.23;2.30;;;;;;;20.43;41.35;102131.34;5070532;28;20131;-78
2022/05/13 11:42:00;;;;;;;12.20;2.40;;;;;;;19.54;43.27;102142.00;5070743;28;20021;-80
2022/05/13 11:44:39;;;;;;;7.88;2.05;;;;;;;18.78;45.20;102149.16;5070325;28;20101;-79
2022/05/13 11:47:10;;;;;;;8.48;2.10;;;;;;;18.46;46.68;102145.31;5070193;28;20451;-77
2022/05/13 11:49:40;;;;;;;9.23;2.17;;;;;;;18.30;47.77;102140.66;5070323;28;20032;-78
2022/05/13 11:52:11;;;;;;;9.48;1.80;;;;;;;18.38;47.11;102139.88;5070754;28;20123;-77